createdAt,value
2023-05-21T00:00:02.357Z,16.30
2023-05-21T00:02:05.821Z,16.20
2023-05-21T00:04:08.154Z,16.20
2023-05-21T00:06:10.116Z,16.20
2023-05-21T00:08:12.126Z,16.20
2023-05-21T00:10:14.200Z,16.20
2023-05-21T00:12:16.363Z,16.20
2023-05-21T00:14:18.416Z,16.10
2023-05-21T00:16:20.983Z,16.10
2023-05-21T00:18:25.484Z,16.20
2023-05-21T00:20:29.229Z,16.10
2023-05-21T00:22:33.367Z,16.10
2023-05-21T00:24:35.889Z,16.10
2023-05-21T00:26:38.194Z,16.10
2023-05-21T00:28:40.245Z,16.00
2023-05-21T00:30:43.101Z,16.00
2023-05-21T00:32:45.157Z,16.00
2023-05-21T00:34:48.584Z,16.00
2023-05-21T00:36:50.644Z,16.00
2023-05-21T00:38:52.667Z,16.00
2023-05-21T00:40:54.627Z,16.00
2023-05-21T00:42:57.336Z,16.00
2023-05-21T00:44:59.468Z,15.90
2023-05-21T00:47:02.204Z,16.00
2023-05-21T00:49:04.530Z,15.90
2023-05-21T00:51:08.033Z,15.80
2023-05-21T00:53:10.886Z,15.90
2023-05-21T00:55:13.161Z,15.90
2023-05-21T00:57:16.404Z,15.90
2023-05-21T00:59:18.694Z,15.90
2023-05-21T01:01:21.090Z,15.90
2023-05-21T01:03:23.633Z,15.90
2023-05-21T01:05:25.936Z,15.90
2023-05-21T01:07:29.844Z,15.90
2023-05-21T01:09:31.938Z,15.80
2023-05-21T01:11:39.793Z,15.80
2023-05-21T01:13:42.976Z,15.80
2023-05-21T01:15:45.986Z,15.80
2023-05-21T01:17:48.906Z,15.80
2023-05-21T01:19:52.740Z,15.80
2023-05-21T01:22:04.450Z,15.70
2023-05-21T01:24:07.955Z,15.70
2023-05-21T01:26:12.939Z,15.60
2023-05-21T01:28:15.394Z,15.60
2023-05-21T01:30:19.213Z,15.60
2023-05-21T01:32:29.247Z,15.60
2023-05-21T01:34:37.382Z,15.60
2023-05-21T01:36:49.381Z,15.50
2023-05-21T01:38:57.684Z,15.50
2023-05-21T01:41:07.125Z,15.50
2023-05-21T01:43:10.823Z,15.50
2023-05-21T01:45:15.620Z,15.40
2023-05-21T01:47:18.913Z,15.40
2023-05-21T01:49:24.825Z,15.40
2023-05-21T01:51:28.012Z,15.30
2023-05-21T01:53:30.139Z,15.30
2023-05-21T01:55:32.945Z,15.30
2023-05-21T01:57:36.470Z,15.30
2023-05-21T01:59:38.843Z,15.30
2023-05-21T02:01:41.226Z,15.30
2023-05-21T02:03:43.645Z,15.30
2023-05-21T02:05:46.128Z,15.30
2023-05-21T02:07:50.948Z,15.30
2023-05-21T02:09:53.167Z,15.30
2023-05-21T02:11:56.794Z,15.20
2023-05-21T02:14:00.573Z,15.30
2023-05-21T02:16:02.702Z,15.30
2023-05-21T02:18:04.882Z,15.20
2023-05-21T02:20:14.528Z,15.20
2023-05-21T02:22:16.730Z,15.20
2023-05-21T02:24:18.809Z,15.10
2023-05-21T02:26:22.339Z,15.10
2023-05-21T02:28:24.436Z,15.10
2023-05-21T02:30:27.761Z,15.10
2023-05-21T02:32:31.783Z,15.10
2023-05-21T02:34:36.506Z,15.20
2023-05-21T02:36:38.536Z,15.10
2023-05-21T02:38:43.668Z,15.10
2023-05-21T02:40:45.903Z,15.00
2023-05-21T02:42:47.954Z,15.00
2023-05-21T02:44:51.000Z,15.00
2023-05-21T02:46:54.343Z,15.00
2023-05-21T02:48:56.407Z,15.00
2023-05-21T02:50:58.841Z,14.90
2023-05-21T02:53:01.185Z,15.00
2023-05-21T02:55:03.466Z,15.00
2023-05-21T02:57:05.982Z,14.90
2023-05-21T02:59:08.022Z,14.80
2023-05-21T03:01:10.173Z,14.80
2023-05-21T03:03:13.540Z,14.80
2023-05-21T03:05:15.919Z,14.90
2023-05-21T03:07:19.057Z,14.80
2023-05-21T03:09:22.223Z,14.60
2023-05-21T03:11:24.262Z,14.60
2023-05-21T03:13:26.415Z,14.60
2023-05-21T03:15:33.246Z,14.60
2023-05-21T03:17:35.368Z,14.60
2023-05-21T03:19:38.861Z,14.60
2023-05-21T03:21:41.765Z,14.60
2023-05-21T03:23:43.924Z,14.60
2023-05-21T03:25:46.269Z,14.60
2023-05-21T03:27:48.363Z,14.60
2023-05-21T03:29:50.432Z,14.60
2023-05-21T03:31:53.924Z,14.50
2023-05-21T03:33:56.164Z,14.50
2023-05-21T03:35:59.522Z,14.40
2023-05-21T03:38:01.838Z,14.50
2023-05-21T03:40:04.806Z,14.40
2023-05-21T03:42:06.920Z,14.50
2023-05-21T03:44:09.209Z,14.40
2023-05-21T03:46:11.222Z,14.50
2023-05-21T03:48:13.332Z,14.50
2023-05-21T03:50:15.671Z,14.50
2023-05-21T03:52:19.003Z,14.50
2023-05-21T03:54:21.264Z,14.50
2023-05-21T03:56:23.562Z,14.40
2023-05-21T03:58:26.853Z,14.50
2023-05-21T04:00:28.962Z,14.50
2023-05-21T04:02:31.794Z,14.50
2023-05-21T04:04:33.956Z,14.50
2023-05-21T04:06:36.816Z,14.50
2023-05-21T04:08:40.246Z,14.50
2023-05-21T04:10:42.574Z,14.50
2023-05-21T04:12:44.646Z,14.50
2023-05-21T04:14:46.864Z,14.50
2023-05-21T04:16:49.217Z,14.50
2023-05-21T04:18:52.290Z,14.50
2023-05-21T04:20:54.488Z,14.50
2023-05-21T04:22:56.855Z,14.50
2023-05-21T04:25:00.564Z,14.50
2023-05-21T04:27:02.511Z,14.50
2023-05-21T04:29:05.075Z,14.50
2023-05-21T04:31:08.631Z,14.60
2023-05-21T04:33:10.800Z,14.60
2023-05-21T04:35:15.179Z,14.60
2023-05-21T04:37:20.411Z,14.60
2023-05-21T04:39:22.701Z,14.60
2023-05-21T04:41:26.171Z,14.60
2023-05-21T04:43:28.281Z,14.60
2023-05-21T04:45:30.890Z,14.70
2023-05-21T04:47:35.415Z,14.60
2023-05-21T04:49:37.849Z,14.60
2023-05-21T04:51:39.946Z,14.60
2023-05-21T04:53:42.577Z,14.60
2023-05-21T04:55:44.601Z,14.70
2023-05-21T04:57:48.254Z,14.70
2023-05-21T04:59:50.456Z,14.80
2023-05-21T05:01:52.703Z,14.80
2023-05-21T05:03:54.782Z,14.80
2023-05-21T05:05:56.868Z,14.90
2023-05-21T05:07:58.905Z,14.90
2023-05-21T05:10:00.997Z,14.90
2023-05-21T05:12:03.203Z,14.80
2023-05-21T05:14:07.499Z,14.90
2023-05-21T05:16:11.272Z,14.90
2023-05-21T05:18:13.440Z,14.90
2023-05-21T05:20:15.666Z,15.00
2023-05-21T05:22:17.691Z,15.00
2023-05-21T05:24:19.711Z,15.00
2023-05-21T05:26:22.244Z,15.10
2023-05-21T05:28:24.314Z,15.20
2023-05-21T05:30:27.730Z,15.20
2023-05-21T05:32:29.731Z,15.30
2023-05-21T05:34:32.448Z,15.30
2023-05-21T05:36:34.452Z,15.40
2023-05-21T05:38:36.484Z,15.40
2023-05-21T05:40:38.465Z,15.50
2023-05-21T05:42:40.650Z,15.50
2023-05-21T05:44:42.876Z,15.50
2023-05-21T05:46:46.405Z,15.60
2023-05-21T05:48:48.432Z,15.60
2023-05-21T05:50:54.501Z,15.60
2023-05-21T05:52:56.530Z,15.70
2023-05-21T05:54:58.563Z,15.70
2023-05-21T05:57:00.828Z,15.80
2023-05-21T05:59:02.906Z,15.90
2023-05-21T06:01:05.028Z,15.90
2023-05-21T06:03:08.776Z,16.00
2023-05-21T06:05:11.019Z,16.00
2023-05-21T06:07:13.030Z,16.10
2023-05-21T06:09:15.251Z,16.10
2023-05-21T06:11:18.936Z,16.20
2023-05-21T06:13:21.073Z,16.10
2023-05-21T06:15:23.060Z,16.00
2023-05-21T06:17:25.221Z,16.10
2023-05-21T06:19:28.933Z,16.00
2023-05-21T06:21:31.266Z,16.00
2023-05-21T06:23:35.465Z,16.00
2023-05-21T06:25:38.435Z,16.10
2023-05-21T06:27:40.645Z,16.10
2023-05-21T06:29:42.663Z,16.10
2023-05-21T06:31:44.762Z,16.20
2023-05-21T06:33:46.877Z,16.20
2023-05-21T06:35:50.575Z,16.30
2023-05-21T06:37:52.859Z,16.30
2023-05-21T06:39:54.870Z,16.40
2023-05-21T06:41:56.890Z,16.40
2023-05-21T06:43:59.020Z,16.40
2023-05-21T06:46:01.439Z,16.50
2023-05-21T06:48:03.974Z,16.60
2023-05-21T06:50:06.521Z,16.80
2023-05-21T06:52:10.182Z,16.70
2023-05-21T06:54:13.487Z,16.80
2023-05-21T06:56:15.698Z,16.70
2023-05-21T06:58:17.683Z,16.70
2023-05-21T07:00:19.670Z,16.90
2023-05-21T07:02:21.800Z,17.00
2023-05-21T07:04:25.450Z,17.00
2023-05-21T07:06:27.527Z,17.10
2023-05-21T07:08:31.359Z,17.30
2023-05-21T07:10:33.457Z,17.30
2023-05-21T07:12:35.679Z,17.40
2023-05-21T07:14:37.705Z,17.50
2023-05-21T07:16:39.693Z,17.60
2023-05-21T07:18:41.820Z,17.60
2023-05-21T07:20:43.948Z,17.70
2023-05-21T07:22:46.175Z,17.80
2023-05-21T07:24:49.548Z,17.90
2023-05-21T07:26:51.598Z,18.00
2023-05-21T07:28:53.605Z,18.10
2023-05-21T07:30:56.037Z,17.90
2023-05-21T07:32:58.225Z,17.90
2023-05-21T07:35:03.848Z,17.80
2023-05-21T07:37:05.821Z,17.90
2023-05-21T07:39:07.951Z,17.90
2023-05-21T07:41:11.634Z,18.10
2023-05-21T07:43:13.671Z,18.30
2023-05-21T07:45:15.799Z,18.40
2023-05-21T07:47:17.932Z,18.40
2023-05-21T07:49:20.038Z,18.50
2023-05-21T07:51:23.509Z,18.60
2023-05-21T07:53:25.548Z,18.50
2023-05-21T07:55:27.587Z,18.50
2023-05-21T07:57:31.024Z,18.60
2023-05-21T07:59:33.695Z,18.50
2023-05-21T08:01:37.387Z,18.50
2023-05-21T08:03:39.561Z,18.60
2023-05-21T08:05:41.921Z,18.60
2023-05-21T08:07:44.409Z,18.70
2023-05-21T08:09:47.112Z,18.80
2023-05-21T08:11:49.243Z,18.80
2023-05-21T08:13:52.687Z,18.90
2023-05-21T08:15:54.933Z,18.90
2023-05-21T08:17:56.967Z,18.80
2023-05-21T08:19:59.068Z,18.80
2023-05-21T08:22:01.710Z,18.80
2023-05-21T08:24:03.944Z,18.90
2023-05-21T08:26:06.862Z,19.00
2023-05-21T08:28:08.857Z,19.00
2023-05-21T08:30:13.260Z,19.10
2023-05-21T08:32:15.276Z,18.80
2023-05-21T08:34:18.673Z,18.90
2023-05-21T08:36:21.321Z,18.90
2023-05-21T08:38:23.352Z,19.00
2023-05-21T08:40:25.522Z,19.10
2023-05-21T08:42:37.307Z,19.10
2023-05-21T08:44:48.210Z,19.20
2023-05-21T08:46:52.282Z,19.30
2023-05-21T08:48:55.760Z,19.30
2023-05-21T08:50:59.656Z,19.20
2023-05-21T08:53:05.515Z,19.10
2023-05-21T08:55:12.572Z,19.10
2023-05-21T08:57:15.910Z,19.20
2023-05-21T08:59:19.741Z,19.20
2023-05-21T09:01:24.150Z,19.30
2023-05-21T09:03:31.877Z,19.30
2023-05-21T09:05:34.743Z,19.30
2023-05-21T09:07:42.805Z,19.40
2023-05-21T09:09:51.573Z,19.20
2023-05-21T09:11:53.759Z,19.40
2023-05-21T09:13:57.899Z,19.50
2023-05-21T09:16:00.150Z,19.30
2023-05-21T09:18:02.535Z,19.30
2023-05-21T09:20:15.124Z,19.20
2023-05-21T09:22:17.323Z,19.20
2023-05-21T09:24:22.930Z,19.20
2023-05-21T09:26:25.733Z,19.20
2023-05-21T09:28:27.808Z,19.20
2023-05-21T09:30:31.837Z,19.30
2023-05-21T09:32:35.474Z,19.50
2023-05-21T09:34:37.501Z,19.70
2023-05-21T09:36:41.058Z,19.80
2023-05-21T09:38:44.878Z,19.80
2023-05-21T09:40:46.972Z,19.90
2023-05-21T09:42:50.480Z,19.90
2023-05-21T09:44:53.224Z,20.00
2023-05-21T09:46:58.919Z,19.90
2023-05-21T09:49:00.926Z,20.00
2023-05-21T09:51:14.623Z,20.10
2023-05-21T09:53:17.954Z,20.20
2023-05-21T09:55:23.451Z,20.00
2023-05-21T09:57:26.487Z,20.20
2023-05-21T09:59:36.582Z,20.20
2023-05-21T10:01:38.862Z,20.30
2023-05-21T10:03:42.897Z,20.30
2023-05-21T10:05:45.108Z,20.60
2023-05-21T10:07:51.280Z,20.60
2023-05-21T10:09:57.845Z,20.60
2023-05-21T10:12:00.279Z,20.40
2023-05-21T10:14:07.346Z,20.50
2023-05-21T10:16:09.812Z,20.70
2023-05-21T10:18:13.687Z,20.60
2023-05-21T10:20:17.424Z,20.60
2023-05-21T10:22:20.028Z,20.70
2023-05-21T10:24:23.920Z,20.80
2023-05-21T10:26:27.960Z,20.90
2023-05-21T10:28:31.137Z,20.90
2023-05-21T10:30:34.541Z,20.90
2023-05-21T10:32:36.831Z,20.80
2023-05-21T10:34:39.088Z,20.70
2023-05-21T10:36:41.710Z,20.80
2023-05-21T10:38:44.621Z,20.80
2023-05-21T10:40:47.733Z,20.90
2023-05-21T10:43:13.387Z,21.00
2023-05-21T10:45:23.644Z,21.20
2023-05-21T10:48:03.324Z,21.30
2023-05-21T10:50:44.486Z,21.40
2023-05-21T10:53:00.744Z,21.40
2023-05-21T10:55:13.924Z,21.20
2023-05-21T10:57:32.789Z,21.00
2023-05-21T10:59:42.299Z,20.90
2023-05-21T11:01:45.372Z,21.10
2023-05-21T11:03:48.722Z,21.30
2023-05-21T11:05:55.379Z,21.30
2023-05-21T11:07:57.842Z,21.30
2023-05-21T11:10:30.267Z,21.40
2023-05-21T11:12:34.867Z,21.30
2023-05-21T11:14:40.275Z,21.30
2023-05-21T11:16:46.849Z,21.40
2023-05-21T11:18:59.004Z,21.30
2023-05-21T11:21:04.653Z,21.30
2023-05-21T11:23:06.687Z,21.40
2023-05-21T11:25:09.129Z,21.50
2023-05-21T11:27:12.510Z,21.60
2023-05-21T11:29:15.226Z,21.60
2023-05-21T11:31:25.978Z,21.60
2023-05-21T11:33:28.093Z,21.70
2023-05-21T11:35:30.280Z,21.60
2023-05-21T11:37:34.654Z,21.50
2023-05-21T11:39:40.289Z,21.40
2023-05-21T11:41:52.663Z,21.40
2023-05-21T11:44:01.279Z,21.50
2023-05-21T11:46:03.827Z,21.60
2023-05-21T11:48:12.999Z,21.70
2023-05-21T11:50:15.858Z,21.90
2023-05-21T11:52:19.686Z,21.90
2023-05-21T11:54:21.658Z,22.00
2023-05-21T11:56:24.432Z,22.10
2023-05-21T11:58:30.988Z,22.10
2023-05-21T12:00:40.143Z,22.10
2023-05-21T12:02:46.607Z,22.10
2023-05-21T12:04:51.508Z,22.10
2023-05-21T12:06:53.330Z,22.20
2023-05-21T12:08:58.440Z,22.10
2023-05-21T12:11:01.757Z,22.00
2023-05-21T12:13:05.252Z,22.10
2023-05-21T12:15:08.303Z,22.10
2023-05-21T12:17:13.316Z,22.10
2023-05-21T12:19:18.946Z,22.20
2023-05-21T12:21:22.385Z,22.20
2023-05-21T12:23:24.790Z,22.30
2023-05-21T12:25:27.577Z,22.00
2023-05-21T12:27:31.214Z,22.20
2023-05-21T12:29:35.653Z,22.40
2023-05-21T12:31:48.165Z,22.50
2023-05-21T12:33:51.085Z,22.40
2023-05-21T12:35:53.381Z,22.20
2023-05-21T12:37:57.061Z,22.20
2023-05-21T12:40:01.304Z,22.30
2023-05-21T12:42:03.396Z,22.30
2023-05-21T12:44:08.629Z,22.20
2023-05-21T12:46:14.665Z,22.30
2023-05-21T12:48:16.757Z,22.40
2023-05-21T12:50:21.400Z,22.50
2023-05-21T12:52:23.807Z,22.50
2023-05-21T12:54:31.769Z,22.50
2023-05-21T12:56:45.381Z,22.50
2023-05-21T12:58:50.570Z,22.50
2023-05-21T13:00:55.247Z,22.50
2023-05-21T13:03:00.095Z,22.50
2023-05-21T13:05:04.160Z,22.60
2023-05-21T13:07:06.173Z,22.70
2023-05-21T13:09:08.226Z,22.50
2023-05-21T13:11:11.554Z,22.50
2023-05-21T13:13:13.549Z,22.40
2023-05-21T13:15:15.767Z,22.40
2023-05-21T13:17:17.969Z,22.50
2023-05-21T13:19:20.071Z,22.60
2023-05-21T13:21:22.108Z,22.60
2023-05-21T13:23:24.524Z,22.50
2023-05-21T13:25:30.089Z,22.40
2023-05-21T13:27:35.002Z,22.40
2023-05-21T13:29:38.120Z,22.30
2023-05-21T13:31:41.089Z,22.40
2023-05-21T13:33:43.366Z,22.60
2023-05-21T13:35:50.974Z,22.60
2023-05-21T13:37:53.163Z,22.70
2023-05-21T13:39:55.349Z,22.60
2023-05-21T13:41:57.493Z,22.80
2023-05-21T13:44:00.983Z,22.70
2023-05-21T13:46:03.708Z,22.70
2023-05-21T13:48:06.510Z,22.90
2023-05-21T13:50:09.345Z,23.00
2023-05-21T13:52:12.490Z,23.00
2023-05-21T13:54:15.720Z,23.10
2023-05-21T13:56:17.857Z,23.00
2023-05-21T13:58:19.893Z,22.90
2023-05-21T14:00:23.371Z,22.80
2023-05-21T14:02:26.017Z,22.70
2023-05-21T14:04:28.568Z,22.60
2023-05-21T14:06:31.957Z,22.60
2023-05-21T14:08:33.978Z,22.60
2023-05-21T14:10:36.620Z,22.60
2023-05-21T14:12:39.012Z,22.60
2023-05-21T14:14:42.106Z,22.50
2023-05-21T14:16:45.872Z,22.40
2023-05-21T14:18:47.920Z,22.30
2023-05-21T14:20:49.894Z,22.20
2023-05-21T14:22:52.322Z,22.20
2023-05-21T14:24:54.348Z,22.20
2023-05-21T14:26:56.453Z,22.20
2023-05-21T14:28:58.536Z,22.30
2023-05-21T14:31:00.607Z,22.30
2023-05-21T14:33:04.165Z,22.30
2023-05-21T14:35:06.749Z,22.30
2023-05-21T14:37:08.902Z,22.30
2023-05-21T14:39:11.561Z,22.60
2023-05-21T14:41:13.734Z,22.70
2023-05-21T14:43:15.875Z,22.70
2023-05-21T14:45:19.427Z,22.60
2023-05-21T14:47:21.738Z,22.60
2023-05-21T14:49:25.221Z,22.60
2023-05-21T14:51:27.289Z,22.70
2023-05-21T14:53:29.285Z,22.70
2023-05-21T14:55:34.737Z,22.70
2023-05-21T14:57:39.073Z,22.90
2023-05-21T14:59:41.655Z,22.80
2023-05-21T15:01:43.980Z,22.70
2023-05-21T15:03:46.145Z,22.70
2023-05-21T15:05:49.832Z,22.70
2023-05-21T15:07:51.963Z,22.70
2023-05-21T15:09:53.999Z,22.70
2023-05-21T15:11:55.974Z,22.80
2023-05-21T15:13:57.965Z,22.60
2023-05-21T15:16:00.006Z,22.60
2023-05-21T15:18:02.243Z,22.60
2023-05-21T15:20:05.914Z,22.60
2023-05-21T15:22:09.358Z,22.70
2023-05-21T15:24:11.613Z,22.60
2023-05-21T15:26:13.765Z,22.60
2023-05-21T15:28:15.876Z,22.60
2023-05-21T15:30:17.963Z,22.50
2023-05-21T15:32:22.606Z,22.40
2023-05-21T15:34:24.727Z,22.40
2023-05-21T15:36:27.169Z,22.30
2023-05-21T15:38:30.938Z,22.40
2023-05-21T15:40:33.277Z,22.40
2023-05-21T15:42:35.328Z,22.40
2023-05-21T15:44:37.363Z,22.30
2023-05-21T15:46:39.562Z,22.30
2023-05-21T15:48:41.557Z,22.30
2023-05-21T15:50:43.580Z,22.30
2023-05-21T15:52:45.589Z,22.30
2023-05-21T15:54:49.108Z,22.30
2023-05-21T15:56:51.199Z,22.20
2023-05-21T15:58:53.290Z,22.10
2023-05-21T16:00:55.376Z,22.10
2023-05-21T16:02:57.622Z,22.10
2023-05-21T16:04:59.678Z,22.10
2023-05-21T16:07:01.802Z,22.10
2023-05-21T16:09:04.012Z,22.10
2023-05-21T16:11:07.455Z,21.90
2023-05-21T16:13:09.552Z,22.00
2023-05-21T16:15:11.904Z,22.10
2023-05-21T16:17:13.876Z,22.00
2023-05-21T16:19:16.018Z,22.00
2023-05-21T16:21:18.175Z,21.90
2023-05-21T16:23:20.646Z,21.90
2023-05-21T16:25:23.148Z,21.90
2023-05-21T16:27:26.488Z,21.80
2023-05-21T16:29:28.635Z,21.80
2023-05-21T16:31:30.718Z,21.80
2023-05-21T16:33:32.944Z,21.80
2023-05-21T16:35:35.210Z,21.80
2023-05-21T16:37:37.450Z,21.90
2023-05-21T16:39:39.439Z,21.90
2023-05-21T16:41:43.054Z,22.00
2023-05-21T16:43:46.457Z,22.00
2023-05-21T16:45:49.141Z,22.00
2023-05-21T16:47:51.761Z,21.90
2023-05-21T16:49:55.774Z,21.90
2023-05-21T16:51:57.880Z,21.80
2023-05-21T16:54:00.069Z,21.70
2023-05-21T16:56:02.215Z,21.60
2023-05-21T16:58:05.913Z,21.60
2023-05-21T17:00:10.333Z,21.50
2023-05-21T17:02:13.561Z,21.50
2023-05-21T17:04:15.734Z,21.50
2023-05-21T17:06:18.048Z,21.50
2023-05-21T17:08:20.021Z,21.40
2023-05-21T17:10:23.973Z,21.40
2023-05-21T17:12:26.154Z,21.40
2023-05-21T17:14:34.310Z,21.40
2023-05-21T17:16:40.617Z,21.40
2023-05-21T17:18:42.750Z,21.40
2023-05-21T17:20:44.913Z,21.40
2023-05-21T17:22:47.089Z,21.30
2023-05-21T17:24:49.080Z,21.30
2023-05-21T17:26:52.440Z,21.30
2023-05-21T17:28:54.489Z,21.30
2023-05-21T17:30:56.590Z,21.30
2023-05-21T17:33:02.242Z,21.30
2023-05-21T17:35:04.768Z,21.30
2023-05-21T17:37:06.750Z,21.10
2023-05-21T17:39:08.824Z,21.00
2023-05-21T17:41:10.986Z,21.10
2023-05-21T17:43:13.008Z,21.00
2023-05-21T17:45:15.088Z,21.10
2023-05-21T17:47:17.295Z,21.00
2023-05-21T17:49:20.832Z,21.00
2023-05-21T17:51:22.905Z,21.00
2023-05-21T17:53:25.073Z,21.00
2023-05-21T17:55:27.120Z,21.00
2023-05-21T17:57:29.247Z,20.90
2023-05-21T17:59:31.288Z,20.80
2023-05-21T18:01:33.503Z,20.80
2023-05-21T18:03:35.670Z,20.80
2023-05-21T18:05:39.173Z,20.80
2023-05-21T18:07:41.738Z,20.70
2023-05-21T18:09:43.900Z,20.60
2023-05-21T18:11:46.241Z,20.60
2023-05-21T18:13:48.354Z,20.60
2023-05-21T18:15:50.435Z,20.60
2023-05-21T18:17:52.559Z,20.60
2023-05-21T18:19:54.903Z,20.60
2023-05-21T18:21:58.428Z,20.60
2023-05-21T18:24:00.576Z,20.50
2023-05-21T18:26:03.194Z,20.60
2023-05-21T18:28:05.659Z,20.60
2023-05-21T18:30:09.041Z,20.60
2023-05-21T18:32:11.566Z,20.50
2023-05-21T18:34:15.442Z,20.50
2023-05-21T18:36:17.553Z,20.40
2023-05-21T18:38:21.337Z,20.30
2023-05-21T18:40:25.032Z,20.30
2023-05-21T18:42:28.239Z,20.20
2023-05-21T18:44:32.674Z,20.20
2023-05-21T18:46:35.381Z,20.10
2023-05-21T18:48:38.801Z,20.10
2023-05-21T18:50:41.164Z,20.10
2023-05-21T18:52:43.217Z,20.00
2023-05-21T18:54:46.580Z,20.00
2023-05-21T18:56:48.548Z,19.90
2023-05-21T18:58:50.583Z,19.80
2023-05-21T19:00:52.672Z,19.80
2023-05-21T19:02:55.116Z,19.80
2023-05-21T19:04:57.258Z,19.70
2023-05-21T19:06:59.331Z,19.70
2023-05-21T19:09:01.599Z,19.70
2023-05-21T19:11:07.308Z,19.60
2023-05-21T19:13:09.755Z,19.60
2023-05-21T19:15:12.230Z,19.60
2023-05-21T19:17:14.250Z,19.60
2023-05-21T19:19:16.656Z,19.50
2023-05-21T19:21:18.709Z,19.50
2023-05-21T19:23:20.806Z,19.50
2023-05-21T19:25:23.406Z,19.40
2023-05-21T19:27:29.078Z,19.40
2023-05-21T19:29:31.552Z,19.30
2023-05-21T19:31:33.843Z,19.30
2023-05-21T19:33:36.015Z,19.30
2023-05-21T19:35:38.166Z,19.30
2023-05-21T19:37:40.363Z,19.30
2023-05-21T19:39:43.452Z,19.20
2023-05-21T19:41:45.620Z,19.20
2023-05-21T19:43:48.999Z,19.20
2023-05-21T19:45:51.037Z,19.20
2023-05-21T19:47:53.097Z,19.20
2023-05-21T19:49:56.357Z,19.10
2023-05-21T19:51:58.537Z,19.10
2023-05-21T19:54:00.652Z,19.10
2023-05-21T19:56:02.688Z,19.10
2023-05-21T19:58:04.888Z,19.10
2023-05-21T20:00:10.264Z,19.00
2023-05-21T20:02:13.244Z,19.00
2023-05-21T20:04:15.340Z,19.00
2023-05-21T20:06:19.004Z,19.00
2023-05-21T20:08:21.228Z,18.90
2023-05-21T20:10:23.269Z,18.90
2023-05-21T20:12:25.450Z,18.90
2023-05-21T20:14:27.626Z,18.90
2023-05-21T20:16:31.258Z,18.80
2023-05-21T20:18:33.339Z,18.80
2023-05-21T20:20:38.145Z,18.80
2023-05-21T20:22:40.438Z,18.80
2023-05-21T20:24:42.549Z,18.80
2023-05-21T20:26:44.985Z,18.80
2023-05-21T20:28:47.240Z,18.70
2023-05-21T20:30:54.302Z,18.70
2023-05-21T20:32:57.802Z,18.70
2023-05-21T20:35:03.448Z,18.60
2023-05-21T20:37:06.417Z,18.60
2023-05-21T20:39:09.324Z,18.60
2023-05-21T20:41:11.824Z,18.60
2023-05-21T20:43:15.112Z,18.60
2023-05-21T20:45:17.447Z,18.50
2023-05-21T20:47:20.250Z,18.50
2023-05-21T20:49:24.935Z,18.50
2023-05-21T20:51:27.404Z,18.50
2023-05-21T20:53:29.404Z,18.50
2023-05-21T20:55:35.025Z,18.40
2023-05-21T20:57:37.154Z,18.40
2023-05-21T20:59:39.840Z,18.40
2023-05-21T21:01:42.711Z,18.40
2023-05-21T21:03:47.902Z,18.40
2023-05-21T21:05:52.808Z,18.40
2023-05-21T21:07:55.860Z,18.40
2023-05-21T21:09:58.824Z,18.30
2023-05-21T21:12:06.297Z,18.20
2023-05-21T21:14:13.731Z,18.20
2023-05-21T21:16:15.813Z,18.20
2023-05-21T21:18:17.874Z,18.10
2023-05-21T21:20:20.027Z,18.10
2023-05-21T21:22:23.425Z,18.00
2023-05-21T21:24:25.519Z,18.10
2023-05-21T21:26:27.667Z,18.00
2023-05-21T21:28:29.750Z,18.00
2023-05-21T21:30:31.899Z,18.00
2023-05-21T21:32:34.099Z,18.00
2023-05-21T21:34:36.126Z,18.00
2023-05-21T21:36:38.245Z,17.90
2023-05-21T21:38:41.719Z,17.90
2023-05-21T21:40:44.879Z,17.90
2023-05-21T21:42:46.988Z,17.80
2023-05-21T21:44:49.059Z,17.80
2023-05-21T21:46:51.207Z,17.80
2023-05-21T21:48:53.428Z,17.70
2023-05-21T21:50:55.779Z,17.70
2023-05-21T21:52:57.932Z,17.70
2023-05-21T21:55:01.277Z,17.60
2023-05-21T21:57:03.895Z,17.60
2023-05-21T21:59:06.174Z,17.60
2023-05-21T22:01:08.313Z,17.50
2023-05-21T22:03:14.397Z,17.50
2023-05-21T22:05:17.053Z,17.40
2023-05-21T22:07:19.535Z,17.50
2023-05-21T22:09:22.537Z,17.50
2023-05-21T22:11:28.413Z,17.40
2023-05-21T22:13:30.546Z,17.40
2023-05-21T22:15:32.935Z,17.40
2023-05-21T22:17:35.260Z,17.40
2023-05-21T22:19:37.389Z,17.30
2023-05-21T22:21:39.681Z,17.30
2023-05-21T22:23:41.784Z,17.30
2023-05-21T22:25:43.789Z,17.30
2023-05-21T22:27:47.159Z,17.30
2023-05-21T22:29:49.112Z,17.20
2023-05-21T22:31:51.270Z,17.20
2023-05-21T22:33:53.455Z,17.20
2023-05-21T22:35:56.855Z,17.20
2023-05-21T22:37:58.936Z,17.20
2023-05-21T22:40:00.957Z,17.20
2023-05-21T22:42:03.609Z,17.10
2023-05-21T22:44:07.087Z,17.10
2023-05-21T22:46:09.155Z,17.10
2023-05-21T22:48:11.529Z,17.10
2023-05-21T22:50:13.939Z,17.10
2023-05-21T22:52:16.606Z,17.00
2023-05-21T22:54:18.625Z,17.10
2023-05-21T22:56:22.136Z,17.00
2023-05-21T22:58:24.112Z,16.90
2023-05-21T23:00:28.241Z,16.80
2023-05-21T23:02:30.290Z,16.80
2023-05-21T23:04:43.303Z,16.70
2023-05-21T23:06:48.988Z,16.70
2023-05-21T23:08:51.217Z,16.60
2023-05-21T23:10:53.372Z,16.50
2023-05-21T23:12:55.651Z,16.60
2023-05-21T23:14:57.826Z,16.50
2023-05-21T23:17:04.475Z,16.50
2023-05-21T23:19:06.536Z,16.60
2023-05-21T23:21:08.765Z,16.50
2023-05-21T23:23:11.308Z,16.50
2023-05-21T23:25:13.380Z,16.60
2023-05-21T23:27:15.627Z,16.50
2023-05-21T23:29:17.904Z,16.50
2023-05-21T23:31:20.061Z,16.40
2023-05-21T23:33:23.480Z,16.40
2023-05-21T23:35:25.714Z,16.40
2023-05-21T23:37:27.893Z,16.40
2023-05-21T23:39:30.192Z,16.40
2023-05-21T23:41:32.222Z,16.40
2023-05-21T23:43:34.602Z,16.40
2023-05-21T23:45:37.162Z,16.30
2023-05-21T23:47:39.506Z,16.30
2023-05-21T23:49:43.049Z,16.30
2023-05-21T23:51:45.143Z,16.20
2023-05-21T23:53:47.413Z,16.20
2023-05-21T23:55:49.517Z,16.20
2023-05-21T23:57:51.709Z,16.20
2023-05-21T23:59:53.794Z,16.20
